sensor_id;sensor_type;location;lat;lon;timestamp;P1;durP1;ratioP1;P2;durP2;ratioP2
72920;SDS011;61064;51.654;5.476;2023-11-19T00:00:28;10.47;;;5.63;;
72920;SDS011;61064;51.654;5.476;2023-11-19T00:02:54;11.40;;;6.13;;
72920;SDS011;61064;51.654;5.476;2023-11-19T00:05:19;12.97;;;6.03;;
72920;SDS011;61064;51.654;5.476;2023-11-19T00:07:44;10.50;;;5.70;;
72920;SDS011;61064;51.654;5.476;2023-11-19T00:12:43;17.08;;;5.95;;
72920;SDS011;61064;51.654;5.476;2023-11-19T00:15:10;12.60;;;5.53;;
72920;SDS011;61064;51.654;5.476;2023-11-19T00:17:40;11.13;;;5.07;;
72920;SDS011;61064;51.654;5.476;2023-11-19T00:20:09;11.27;;;5.38;;
72920;SDS011;61064;51.654;5.476;2023-11-19T00:22:35;12.25;;;5.22;;
72920;SDS011;61064;51.654;5.476;2023-11-19T00:25:01;12.70;;;5.40;;
72920;SDS011;61064;51.654;5.476;2023-11-19T00:27:27;13.98;;;5.90;;
72920;SDS011;61064;51.654;5.476;2023-11-19T00:29:52;15.57;;;5.27;;
72920;SDS011;61064;51.654;5.476;2023-11-19T00:32:17;11.43;;;4.90;;
72920;SDS011;61064;51.654;5.476;2023-11-19T00:34:44;11.75;;;4.90;;
72920;SDS011;61064;51.654;5.476;2023-11-19T00:37:09;11.97;;;5.00;;
72920;SDS011;61064;51.654;5.476;2023-11-19T00:39:35;13.13;;;4.60;;
72920;SDS011;61064;51.654;5.476;2023-11-19T00:42:03;13.47;;;4.63;;
72920;SDS011;61064;51.654;5.476;2023-11-19T00:44:29;14.10;;;4.90;;
72920;SDS011;61064;51.654;5.476;2023-11-19T00:46:54;13.17;;;4.53;;
72920;SDS011;61064;51.654;5.476;2023-11-19T00:49:19;14.93;;;5.03;;
72920;SDS011;61064;51.654;5.476;2023-11-19T00:51:45;12.93;;;4.57;;
72920;SDS011;61064;51.654;5.476;2023-11-19T00:54:10;13.23;;;4.63;;
72920;SDS011;61064;51.654;5.476;2023-11-19T00:56:36;12.13;;;4.50;;
72920;SDS011;61064;51.654;5.476;2023-11-19T00:59:04;13.50;;;4.80;;
72920;SDS011;61064;51.654;5.476;2023-11-19T01:01:30;14.87;;;4.43;;
72920;SDS011;61064;51.654;5.476;2023-11-19T01:03:56;14.83;;;4.67;;
72920;SDS011;61064;51.654;5.476;2023-11-19T01:06:30;11.30;;;3.95;;
72920;SDS011;61064;51.654;5.476;2023-11-19T01:08:59;15.67;;;3.63;;
72920;SDS011;61064;51.654;5.476;2023-11-19T01:11:24;17.05;;;3.97;;
72920;SDS011;61064;51.654;5.476;2023-11-19T01:13:50;12.47;;;3.40;;
72920;SDS011;61064;51.654;5.476;2023-11-19T01:16:16;13.48;;;3.33;;
72920;SDS011;61064;51.654;5.476;2023-11-19T01:18:42;18.45;;;3.67;;
72920;SDS011;61064;51.654;5.476;2023-11-19T01:21:07;10.27;;;2.90;;
72920;SDS011;61064;51.654;5.476;2023-11-19T01:23:33;12.93;;;3.17;;
72920;SDS011;61064;51.654;5.476;2023-11-19T01:25:59;14.27;;;2.88;;
72920;SDS011;61064;51.654;5.476;2023-11-19T01:28:24;11.17;;;2.53;;
72920;SDS011;61064;51.654;5.476;2023-11-19T01:30:53;13.83;;;3.47;;
72920;SDS011;61064;51.654;5.476;2023-11-19T01:33:18;11.70;;;2.80;;
72920;SDS011;61064;51.654;5.476;2023-11-19T01:35:44;12.73;;;2.70;;
72920;SDS011;61064;51.654;5.476;2023-11-19T01:38:09;12.73;;;2.70;;
72920;SDS011;61064;51.654;5.476;2023-11-19T01:40:35;17.97;;;2.90;;
72920;SDS011;61064;51.654;5.476;2023-11-19T01:43:01;13.70;;;2.38;;
72920;SDS011;61064;51.654;5.476;2023-11-19T01:45:31;17.80;;;3.08;;
72920;SDS011;61064;51.654;5.476;2023-11-19T01:47:57;14.60;;;2.43;;
72920;SDS011;61064;51.654;5.476;2023-11-19T01:50:25;12.65;;;2.13;;
72920;SDS011;61064;51.654;5.476;2023-11-19T01:52:52;13.60;;;2.55;;
72920;SDS011;61064;51.654;5.476;2023-11-19T01:55:19;13.13;;;2.58;;
72920;SDS011;61064;51.654;5.476;2023-11-19T01:57:45;14.20;;;2.35;;
72920;SDS011;61064;51.654;5.476;2023-11-19T02:00:12;14.07;;;2.57;;
72920;SDS011;61064;51.654;5.476;2023-11-19T02:02:39;17.45;;;3.00;;
72920;SDS011;61064;51.654;5.476;2023-11-19T02:05:05;16.23;;;2.05;;
72920;SDS011;61064;51.654;5.476;2023-11-19T02:07:31;13.88;;;2.25;;
72920;SDS011;61064;51.654;5.476;2023-11-19T02:09:57;15.20;;;2.20;;
72920;SDS011;61064;51.654;5.476;2023-11-19T02:12:25;17.60;;;2.53;;
72920;SDS011;61064;51.654;5.476;2023-11-19T02:14:53;17.98;;;2.30;;
72920;SDS011;61064;51.654;5.476;2023-11-19T02:17:28;17.97;;;2.43;;
72920;SDS011;61064;51.654;5.476;2023-11-19T02:19:56;13.63;;;2.90;;
72920;SDS011;61064;51.654;5.476;2023-11-19T02:22:23;21.85;;;2.40;;
72920;SDS011;61064;51.654;5.476;2023-11-19T02:24:49;16.75;;;2.33;;
72920;SDS011;61064;51.654;5.476;2023-11-19T02:27:28;13.45;;;2.42;;
72920;SDS011;61064;51.654;5.476;2023-11-19T02:30:03;11.83;;;1.80;;
72920;SDS011;61064;51.654;5.476;2023-11-19T02:32:31;21.27;;;3.65;;
72920;SDS011;61064;51.654;5.476;2023-11-19T02:34:56;18.23;;;2.63;;
72920;SDS011;61064;51.654;5.476;2023-11-19T02:37:21;18.23;;;2.50;;
72920;SDS011;61064;51.654;5.476;2023-11-19T02:39:47;17.33;;;2.53;;
72920;SDS011;61064;51.654;5.476;2023-11-19T02:42:15;14.43;;;2.60;;
72920;SDS011;61064;51.654;5.476;2023-11-19T02:44:43;15.77;;;2.50;;
72920;SDS011;61064;51.654;5.476;2023-11-19T02:47:10;15.90;;;2.57;;
72920;SDS011;61064;51.654;5.476;2023-11-19T02:49:35;25.58;;;2.70;;
72920;SDS011;61064;51.654;5.476;2023-11-19T02:52:02;21.33;;;2.67;;
72920;SDS011;61064;51.654;5.476;2023-11-19T02:54:30;19.67;;;2.70;;
72920;SDS011;61064;51.654;5.476;2023-11-19T02:56:59;21.23;;;2.60;;
72920;SDS011;61064;51.654;5.476;2023-11-19T02:59:26;23.63;;;2.85;;
72920;SDS011;61064;51.654;5.476;2023-11-19T03:01:52;20.38;;;3.30;;
72920;SDS011;61064;51.654;5.476;2023-11-19T03:04:18;18.45;;;2.97;;
72920;SDS011;61064;51.654;5.476;2023-11-19T03:06:45;24.13;;;2.90;;
72920;SDS011;61064;51.654;5.476;2023-11-19T03:09:10;18.38;;;2.75;;
72920;SDS011;61064;51.654;5.476;2023-11-19T03:11:36;19.33;;;2.10;;
72920;SDS011;61064;51.654;5.476;2023-11-19T03:14:02;18.58;;;2.38;;
72920;SDS011;61064;51.654;5.476;2023-11-19T03:16:30;23.45;;;2.28;;
72920;SDS011;61064;51.654;5.476;2023-11-19T03:18:55;21.83;;;2.47;;
72920;SDS011;61064;51.654;5.476;2023-11-19T03:21:30;19.88;;;2.70;;
72920;SDS011;61064;51.654;5.476;2023-11-19T03:23:57;25.53;;;2.70;;
72920;SDS011;61064;51.654;5.476;2023-11-19T03:26:25;21.05;;;2.47;;
72920;SDS011;61064;51.654;5.476;2023-11-19T03:28:51;20.02;;;2.38;;
72920;SDS011;61064;51.654;5.476;2023-11-19T03:31:17;23.83;;;2.50;;
72920;SDS011;61064;51.654;5.476;2023-11-19T03:33:42;23.57;;;2.63;;
72920;SDS011;61064;51.654;5.476;2023-11-19T03:36:07;23.53;;;2.67;;
72920;SDS011;61064;51.654;5.476;2023-11-19T03:38:34;28.42;;;3.25;;
72920;SDS011;61064;51.654;5.476;2023-11-19T03:40:59;25.20;;;2.87;;
72920;SDS011;61064;51.654;5.476;2023-11-19T03:43:25;23.20;;;3.10;;
72920;SDS011;61064;51.654;5.476;2023-11-19T03:45:50;22.63;;;2.40;;
72920;SDS011;61064;51.654;5.476;2023-11-19T03:48:16;24.42;;;2.85;;
72920;SDS011;61064;51.654;5.476;2023-11-19T03:50:41;24.37;;;3.20;;
72920;SDS011;61064;51.654;5.476;2023-11-19T03:53:11;26.40;;;2.60;;
72920;SDS011;61064;51.654;5.476;2023-11-19T03:55:36;23.27;;;2.63;;
72920;SDS011;61064;51.654;5.476;2023-11-19T03:58:02;25.10;;;3.07;;
72920;SDS011;61064;51.654;5.476;2023-11-19T04:00:27;27.50;;;2.87;;
72920;SDS011;61064;51.654;5.476;2023-11-19T04:02:52;22.13;;;2.60;;
72920;SDS011;61064;51.654;5.476;2023-11-19T04:05:18;25.63;;;2.73;;
72920;SDS011;61064;51.654;5.476;2023-11-19T04:07:43;24.77;;;3.17;;
72920;SDS011;61064;51.654;5.476;2023-11-19T04:10:09;20.40;;;2.83;;
72920;SDS011;61064;51.654;5.476;2023-11-19T04:12:34;22.40;;;2.93;;
72920;SDS011;61064;51.654;5.476;2023-11-19T04:15:00;26.97;;;3.43;;
72920;SDS011;61064;51.654;5.476;2023-11-19T04:17:25;24.83;;;2.97;;
72920;SDS011;61064;51.654;5.476;2023-11-19T04:19:51;26.27;;;3.00;;
72920;SDS011;61064;51.654;5.476;2023-11-19T04:22:16;24.60;;;3.30;;
72920;SDS011;61064;51.654;5.476;2023-11-19T04:24:41;24.40;;;2.70;;
72920;SDS011;61064;51.654;5.476;2023-11-19T04:27:09;23.08;;;3.10;;
72920;SDS011;61064;51.654;5.476;2023-11-19T04:29:34;26.77;;;2.57;;
72920;SDS011;61064;51.654;5.476;2023-11-19T04:31:59;22.93;;;2.33;;
72920;SDS011;61064;51.654;5.476;2023-11-19T04:34:26;30.90;;;3.63;;
72920;SDS011;61064;51.654;5.476;2023-11-19T04:36:51;22.10;;;2.57;;
72920;SDS011;61064;51.654;5.476;2023-11-19T04:39:16;25.53;;;3.10;;
72920;SDS011;61064;51.654;5.476;2023-11-19T04:41:50;22.33;;;2.60;;
72920;SDS011;61064;51.654;5.476;2023-11-19T04:44:18;24.30;;;2.65;;
72920;SDS011;61064;51.654;5.476;2023-11-19T04:46:43;25.20;;;2.67;;
72920;SDS011;61064;51.654;5.476;2023-11-19T04:49:09;21.65;;;2.50;;
72920;SDS011;61064;51.654;5.476;2023-11-19T04:51:42;27.60;;;3.35;;
72920;SDS011;61064;51.654;5.476;2023-11-19T04:54:09;20.67;;;2.50;;
72920;SDS011;61064;51.654;5.476;2023-11-19T04:56:38;28.05;;;3.17;;
72920;SDS011;61064;51.654;5.476;2023-11-19T04:59:10;24.63;;;2.83;;
72920;SDS011;61064;51.654;5.476;2023-11-19T05:01:35;27.73;;;2.70;;
72920;SDS011;61064;51.654;5.476;2023-11-19T05:04:00;25.60;;;3.00;;
72920;SDS011;61064;51.654;5.476;2023-11-19T05:06:27;26.90;;;3.60;;
72920;SDS011;61064;51.654;5.476;2023-11-19T05:08:54;19.83;;;2.67;;
72920;SDS011;61064;51.654;5.476;2023-11-19T05:11:19;26.60;;;2.80;;
72920;SDS011;61064;51.654;5.476;2023-11-19T05:13:45;27.20;;;2.60;;
72920;SDS011;61064;51.654;5.476;2023-11-19T05:16:10;28.80;;;3.03;;
72920;SDS011;61064;51.654;5.476;2023-11-19T05:18:39;26.70;;;2.90;;
72920;SDS011;61064;51.654;5.476;2023-11-19T05:21:07;26.13;;;3.28;;
72920;SDS011;61064;51.654;5.476;2023-11-19T05:23:32;21.90;;;2.27;;
72920;SDS011;61064;51.654;5.476;2023-11-19T05:26:01;32.83;;;3.03;;
72920;SDS011;61064;51.654;5.476;2023-11-19T05:28:27;24.13;;;2.88;;
72920;SDS011;61064;51.654;5.476;2023-11-19T05:30:52;22.90;;;2.87;;
72920;SDS011;61064;51.654;5.476;2023-11-19T05:33:17;25.97;;;3.33;;
72920;SDS011;61064;51.654;5.476;2023-11-19T05:35:43;23.33;;;2.93;;
72920;SDS011;61064;51.654;5.476;2023-11-19T05:38:08;23.47;;;3.07;;
72920;SDS011;61064;51.654;5.476;2023-11-19T05:40:34;23.73;;;2.92;;
72920;SDS011;61064;51.654;5.476;2023-11-19T05:43:00;30.33;;;3.47;;
72920;SDS011;61064;51.654;5.476;2023-11-19T05:45:25;22.80;;;2.73;;
72920;SDS011;61064;51.654;5.476;2023-11-19T05:47:51;24.55;;;2.95;;
72920;SDS011;61064;51.654;5.476;2023-11-19T05:50:17;28.60;;;2.85;;
72920;SDS011;61064;51.654;5.476;2023-11-19T05:52:43;24.10;;;3.20;;
72920;SDS011;61064;51.654;5.476;2023-11-19T05:55:09;22.90;;;2.40;;
72920;SDS011;61064;51.654;5.476;2023-11-19T05:57:35;29.10;;;2.80;;
72920;SDS011;61064;51.654;5.476;2023-11-19T06:00:04;22.63;;;3.10;;
72920;SDS011;61064;51.654;5.476;2023-11-19T06:02:32;35.00;;;4.93;;
72920;SDS011;61064;51.654;5.476;2023-11-19T06:04:58;24.00;;;2.70;;
72920;SDS011;61064;51.654;5.476;2023-11-19T06:07:23;25.80;;;2.53;;
72920;SDS011;61064;51.654;5.476;2023-11-19T06:09:48;23.20;;;2.73;;
72920;SDS011;61064;51.654;5.476;2023-11-19T06:12:14;32.50;;;3.00;;
72920;SDS011;61064;51.654;5.476;2023-11-19T06:14:39;29.10;;;2.67;;
72920;SDS011;61064;51.654;5.476;2023-11-19T06:17:05;31.67;;;2.70;;
72920;SDS011;61064;51.654;5.476;2023-11-19T06:19:30;31.73;;;3.08;;
72920;SDS011;61064;51.654;5.476;2023-11-19T06:21:56;25.43;;;3.23;;
72920;SDS011;61064;51.654;5.476;2023-11-19T06:24:21;28.77;;;3.53;;
72920;SDS011;61064;51.654;5.476;2023-11-19T06:26:47;29.27;;;3.13;;
72920;SDS011;61064;51.654;5.476;2023-11-19T06:29:12;25.23;;;2.70;;
72920;SDS011;61064;51.654;5.476;2023-11-19T06:31:43;27.70;;;2.78;;
72920;SDS011;61064;51.654;5.476;2023-11-19T06:34:08;26.60;;;3.10;;
72920;SDS011;61064;51.654;5.476;2023-11-19T06:36:34;27.77;;;3.50;;
72920;SDS011;61064;51.654;5.476;2023-11-19T06:39:00;24.00;;;2.85;;
72920;SDS011;61064;51.654;5.476;2023-11-19T06:41:25;26.00;;;3.07;;
72920;SDS011;61064;51.654;5.476;2023-11-19T06:43:51;28.40;;;2.67;;
72920;SDS011;61064;51.654;5.476;2023-11-19T06:46:17;29.07;;;2.90;;
72920;SDS011;61064;51.654;5.476;2023-11-19T06:48:43;27.60;;;3.27;;
72920;SDS011;61064;51.654;5.476;2023-11-19T06:51:09;31.20;;;3.05;;
72920;SDS011;61064;51.654;5.476;2023-11-19T06:53:35;30.38;;;4.20;;
72920;SDS011;61064;51.654;5.476;2023-11-19T06:56:01;29.37;;;3.03;;
72920;SDS011;61064;51.654;5.476;2023-11-19T06:58:30;23.10;;;2.38;;
72920;SDS011;61064;51.654;5.476;2023-11-19T07:00:55;28.63;;;2.97;;
72920;SDS011;61064;51.654;5.476;2023-11-19T07:03:21;26.92;;;2.78;;
72920;SDS011;61064;51.654;5.476;2023-11-19T07:05:46;27.47;;;3.87;;
72920;SDS011;61064;51.654;5.476;2023-11-19T07:08:12;25.20;;;2.97;;
72920;SDS011;61064;51.654;5.476;2023-11-19T07:10:37;27.00;;;3.43;;
72920;SDS011;61064;51.654;5.476;2023-11-19T07:13:03;26.95;;;2.65;;
72920;SDS011;61064;51.654;5.476;2023-11-19T07:15:30;23.92;;;2.70;;
72920;SDS011;61064;51.654;5.476;2023-11-19T07:17:57;24.83;;;3.05;;
72920;SDS011;61064;51.654;5.476;2023-11-19T07:20:24;31.07;;;3.60;;
72920;SDS011;61064;51.654;5.476;2023-11-19T07:22:49;21.45;;;2.72;;
72920;SDS011;61064;51.654;5.476;2023-11-19T07:25:14;31.03;;;3.73;;
72920;SDS011;61064;51.654;5.476;2023-11-19T07:27:40;24.50;;;3.00;;
72920;SDS011;61064;51.654;5.476;2023-11-19T07:30:06;26.77;;;3.03;;
72920;SDS011;61064;51.654;5.476;2023-11-19T07:32:35;24.90;;;2.63;;
72920;SDS011;61064;51.654;5.476;2023-11-19T07:35:04;27.50;;;2.80;;
72920;SDS011;61064;51.654;5.476;2023-11-19T07:37:30;26.23;;;2.93;;
72920;SDS011;61064;51.654;5.476;2023-11-19T07:39:56;26.35;;;2.92;;
72920;SDS011;61064;51.654;5.476;2023-11-19T07:42:21;22.63;;;2.73;;
72920;SDS011;61064;51.654;5.476;2023-11-19T07:44:47;26.23;;;2.67;;
72920;SDS011;61064;51.654;5.476;2023-11-19T07:47:13;20.33;;;2.67;;
72920;SDS011;61064;51.654;5.476;2023-11-19T07:49:38;25.77;;;2.53;;
72920;SDS011;61064;51.654;5.476;2023-11-19T07:52:04;28.80;;;3.27;;
72920;SDS011;61064;51.654;5.476;2023-11-19T07:54:29;23.35;;;2.58;;
72920;SDS011;61064;51.654;5.476;2023-11-19T07:56:55;29.83;;;3.10;;
72920;SDS011;61064;51.654;5.476;2023-11-19T07:59:20;30.20;;;2.90;;
72920;SDS011;61064;51.654;5.476;2023-11-19T08:01:46;22.50;;;2.67;;
72920;SDS011;61064;51.654;5.476;2023-11-19T08:04:12;31.35;;;2.80;;
72920;SDS011;61064;51.654;5.476;2023-11-19T08:06:38;25.63;;;2.83;;
72920;SDS011;61064;51.654;5.476;2023-11-19T08:09:03;27.30;;;3.20;;
72920;SDS011;61064;51.654;5.476;2023-11-19T08:11:29;26.20;;;2.58;;
72920;SDS011;61064;51.654;5.476;2023-11-19T08:13:54;26.27;;;2.93;;
72920;SDS011;61064;51.654;5.476;2023-11-19T08:16:20;23.07;;;2.80;;
72920;SDS011;61064;51.654;5.476;2023-11-19T08:18:45;22.07;;;2.50;;
72920;SDS011;61064;51.654;5.476;2023-11-19T08:21:10;29.50;;;3.47;;
72920;SDS011;61064;51.654;5.476;2023-11-19T08:23:36;32.43;;;3.67;;
72920;SDS011;61064;51.654;5.476;2023-11-19T08:26:02;27.67;;;2.93;;
72920;SDS011;61064;51.654;5.476;2023-11-19T08:28:27;31.50;;;3.45;;
72920;SDS011;61064;51.654;5.476;2023-11-19T08:30:53;23.77;;;2.67;;
72920;SDS011;61064;51.654;5.476;2023-11-19T08:33:20;21.10;;;3.03;;
72920;SDS011;61064;51.654;5.476;2023-11-19T08:35:47;25.30;;;2.83;;
72920;SDS011;61064;51.654;5.476;2023-11-19T08:38:13;27.23;;;3.00;;
72920;SDS011;61064;51.654;5.476;2023-11-19T08:40:38;30.40;;;4.10;;
72920;SDS011;61064;51.654;5.476;2023-11-19T08:43:03;31.08;;;3.20;;
72920;SDS011;61064;51.654;5.476;2023-11-19T08:45:29;23.57;;;2.83;;
72920;SDS011;61064;51.654;5.476;2023-11-19T08:47:55;30.10;;;3.05;;
72920;SDS011;61064;51.654;5.476;2023-11-19T08:50:20;27.70;;;3.37;;
72920;SDS011;61064;51.654;5.476;2023-11-19T08:52:46;25.10;;;2.97;;
72920;SDS011;61064;51.654;5.476;2023-11-19T08:55:11;30.27;;;4.40;;
72920;SDS011;61064;51.654;5.476;2023-11-19T08:57:38;26.52;;;3.40;;
72920;SDS011;61064;51.654;5.476;2023-11-19T09:00:04;22.98;;;2.80;;
72920;SDS011;61064;51.654;5.476;2023-11-19T09:02:34;25.33;;;3.10;;
72920;SDS011;61064;51.654;5.476;2023-11-19T09:05:02;25.47;;;2.80;;
72920;SDS011;61064;51.654;5.476;2023-11-19T09:07:29;29.95;;;3.38;;
72920;SDS011;61064;51.654;5.476;2023-11-19T09:09:54;27.07;;;2.87;;
72920;SDS011;61064;51.654;5.476;2023-11-19T09:12:20;28.85;;;3.03;;
72920;SDS011;61064;51.654;5.476;2023-11-19T09:14:45;29.80;;;2.77;;
72920;SDS011;61064;51.654;5.476;2023-11-19T09:17:11;22.77;;;2.70;;
72920;SDS011;61064;51.654;5.476;2023-11-19T09:19:36;22.58;;;2.65;;
72920;SDS011;61064;51.654;5.476;2023-11-19T09:22:02;24.13;;;2.77;;
72920;SDS011;61064;51.654;5.476;2023-11-19T09:24:27;27.63;;;3.83;;
72920;SDS011;61064;51.654;5.476;2023-11-19T09:26:53;26.50;;;3.67;;
72920;SDS011;61064;51.654;5.476;2023-11-19T09:29:19;29.33;;;2.50;;
72920;SDS011;61064;51.654;5.476;2023-11-19T09:31:46;28.95;;;3.22;;
72920;SDS011;61064;51.654;5.476;2023-11-19T09:34:11;33.23;;;4.00;;
72920;SDS011;61064;51.654;5.476;2023-11-19T09:36:37;27.50;;;3.03;;
72920;SDS011;61064;51.654;5.476;2023-11-19T09:39:04;26.17;;;2.77;;
72920;SDS011;61064;51.654;5.476;2023-11-19T09:41:30;26.40;;;2.63;;
72920;SDS011;61064;51.654;5.476;2023-11-19T09:43:56;26.27;;;2.78;;
72920;SDS011;61064;51.654;5.476;2023-11-19T09:46:21;24.27;;;2.50;;
72920;SDS011;61064;51.654;5.476;2023-11-19T09:48:49;25.13;;;3.13;;
72920;SDS011;61064;51.654;5.476;2023-11-19T09:51:19;29.05;;;2.95;;
72920;SDS011;61064;51.654;5.476;2023-11-19T09:53:45;23.37;;;2.90;;
72920;SDS011;61064;51.654;5.476;2023-11-19T09:56:11;27.20;;;2.90;;
72920;SDS011;61064;51.654;5.476;2023-11-19T09:58:37;32.47;;;3.42;;
72920;SDS011;61064;51.654;5.476;2023-11-19T10:01:03;24.67;;;2.50;;
72920;SDS011;61064;51.654;5.476;2023-11-19T10:03:34;23.52;;;2.72;;
72920;SDS011;61064;51.654;5.476;2023-11-19T10:06:03;30.58;;;3.08;;
72920;SDS011;61064;51.654;5.476;2023-11-19T10:08:29;23.93;;;2.70;;
72920;SDS011;61064;51.654;5.476;2023-11-19T10:10:54;26.95;;;3.53;;
72920;SDS011;61064;51.654;5.476;2023-11-19T10:13:20;28.30;;;3.20;;
72920;SDS011;61064;51.654;5.476;2023-11-19T10:15:51;25.35;;;2.85;;
72920;SDS011;61064;51.654;5.476;2023-11-19T10:18:17;18.03;;;2.37;;
72920;SDS011;61064;51.654;5.476;2023-11-19T10:20:43;25.50;;;2.73;;
72920;SDS011;61064;51.654;5.476;2023-11-19T10:23:09;26.55;;;2.95;;
72920;SDS011;61064;51.654;5.476;2023-11-19T10:25:36;23.77;;;3.28;;
72920;SDS011;61064;51.654;5.476;2023-11-19T10:28:01;28.27;;;3.67;;
72920;SDS011;61064;51.654;5.476;2023-11-19T10:30:28;25.35;;;3.08;;
72920;SDS011;61064;51.654;5.476;2023-11-19T10:33:07;25.98;;;3.65;;
72920;SDS011;61064;51.654;5.476;2023-11-19T10:35:55;28.85;;;3.50;;
72920;SDS011;61064;51.654;5.476;2023-11-19T10:38:22;30.30;;;3.37;;
72920;SDS011;61064;51.654;5.476;2023-11-19T10:40:49;21.98;;;2.75;;
72920;SDS011;61064;51.654;5.476;2023-11-19T10:43:15;27.77;;;3.25;;
72920;SDS011;61064;51.654;5.476;2023-11-19T10:45:41;25.33;;;3.60;;
72920;SDS011;61064;51.654;5.476;2023-11-19T10:48:06;28.15;;;3.10;;
72920;SDS011;61064;51.654;5.476;2023-11-19T10:50:38;24.03;;;2.90;;
72920;SDS011;61064;51.654;5.476;2023-11-19T10:53:06;29.52;;;3.15;;
72920;SDS011;61064;51.654;5.476;2023-11-19T10:55:32;26.90;;;2.60;;
72920;SDS011;61064;51.654;5.476;2023-11-19T10:58:04;25.38;;;2.60;;
72920;SDS011;61064;51.654;5.476;2023-11-19T11:00:44;29.40;;;2.45;;
72920;SDS011;61064;51.654;5.476;2023-11-19T11:03:17;28.10;;;3.60;;
72920;SDS011;61064;51.654;5.476;2023-11-19T11:05:48;26.63;;;3.47;;
72920;SDS011;61064;51.654;5.476;2023-11-19T11:08:15;24.00;;;2.72;;
72920;SDS011;61064;51.654;5.476;2023-11-19T11:10:52;24.50;;;3.22;;
72920;SDS011;61064;51.654;5.476;2023-11-19T11:13:18;27.67;;;3.00;;
72920;SDS011;61064;51.654;5.476;2023-11-19T11:15:44;26.87;;;2.93;;
72920;SDS011;61064;51.654;5.476;2023-11-19T11:18:12;27.63;;;2.88;;
72920;SDS011;61064;51.654;5.476;2023-11-19T11:20:38;22.35;;;2.65;;
72920;SDS011;61064;51.654;5.476;2023-11-19T11:26:04;24.15;;;2.78;;
72920;SDS011;61064;51.654;5.476;2023-11-19T11:28:54;28.75;;;3.05;;
72920;SDS011;61064;51.654;5.476;2023-11-19T11:31:35;21.30;;;3.03;;
72920;SDS011;61064;51.654;5.476;2023-11-19T11:36:53;19.17;;;2.73;;
72920;SDS011;61064;51.654;5.476;2023-11-19T11:39:34;22.73;;;2.60;;
72920;SDS011;61064;51.654;5.476;2023-11-19T11:50:11;19.03;;;2.67;;
72920;SDS011;61064;51.654;5.476;2023-11-19T11:55:34;21.75;;;2.72;;
72920;SDS011;61064;51.654;5.476;2023-11-19T11:58:10;16.15;;;2.28;;
72920;SDS011;61064;51.654;5.476;2023-11-19T12:00:39;16.23;;;2.10;;
72920;SDS011;61064;51.654;5.476;2023-11-19T12:03:06;23.90;;;3.10;;
72920;SDS011;61064;51.654;5.476;2023-11-19T12:05:33;20.17;;;2.20;;
72920;SDS011;61064;51.654;5.476;2023-11-19T12:08:05;22.58;;;2.65;;
72920;SDS011;61064;51.654;5.476;2023-11-19T12:13:12;16.00;;;2.03;;
72920;SDS011;61064;51.654;5.476;2023-11-19T12:16:06;18.73;;;1.90;;
72920;SDS011;61064;51.654;5.476;2023-11-19T12:18:30;19.80;;;2.25;;
72920;SDS011;61064;51.654;5.476;2023-11-19T12:20:57;17.40;;;2.50;;
72920;SDS011;61064;51.654;5.476;2023-11-19T12:23:27;18.85;;;2.60;;
72920;SDS011;61064;51.654;5.476;2023-11-19T12:25:54;23.23;;;3.17;;
72920;SDS011;61064;51.654;5.476;2023-11-19T12:28:20;20.00;;;2.73;;
72920;SDS011;61064;51.654;5.476;2023-11-19T12:30:46;14.82;;;2.10;;
72920;SDS011;61064;51.654;5.476;2023-11-19T12:33:15;19.20;;;2.28;;
72920;SDS011;61064;51.654;5.476;2023-11-19T12:35:42;18.35;;;2.70;;
72920;SDS011;61064;51.654;5.476;2023-11-19T12:38:20;20.30;;;2.47;;
72920;SDS011;61064;51.654;5.476;2023-11-19T12:40:47;23.93;;;3.10;;
72920;SDS011;61064;51.654;5.476;2023-11-19T12:43:27;18.67;;;2.28;;
72920;SDS011;61064;51.654;5.476;2023-11-19T12:45:52;22.73;;;3.00;;
72920;SDS011;61064;51.654;5.476;2023-11-19T12:48:17;17.10;;;2.23;;
72920;SDS011;61064;51.654;5.476;2023-11-19T12:53:23;19.83;;;2.53;;
72920;SDS011;61064;51.654;5.476;2023-11-19T12:55:50;21.00;;;2.63;;
72920;SDS011;61064;51.654;5.476;2023-11-19T12:58:29;19.02;;;2.20;;
72920;SDS011;61064;51.654;5.476;2023-11-19T13:01:00;23.90;;;3.72;;
72920;SDS011;61064;51.654;5.476;2023-11-19T13:03:30;25.77;;;2.70;;
72920;SDS011;61064;51.654;5.476;2023-11-19T13:06:06;21.08;;;2.58;;
72920;SDS011;61064;51.654;5.476;2023-11-19T13:08:43;19.03;;;2.23;;
72920;SDS011;61064;51.654;5.476;2023-11-19T13:11:10;19.75;;;2.72;;
72920;SDS011;61064;51.654;5.476;2023-11-19T13:16:25;23.98;;;2.50;;
72920;SDS011;61064;51.654;5.476;2023-11-19T13:18:51;18.48;;;3.25;;
72920;SDS011;61064;51.654;5.476;2023-11-19T13:21:16;21.53;;;2.43;;
72920;SDS011;61064;51.654;5.476;2023-11-19T13:23:42;19.80;;;2.50;;
72920;SDS011;61064;51.654;5.476;2023-11-19T13:26:08;23.53;;;2.83;;
72920;SDS011;61064;51.654;5.476;2023-11-19T13:28:34;20.00;;;2.63;;
72920;SDS011;61064;51.654;5.476;2023-11-19T13:30:59;16.43;;;2.13;;
72920;SDS011;61064;51.654;5.476;2023-11-19T13:33:24;23.60;;;2.30;;
72920;SDS011;61064;51.654;5.476;2023-11-19T13:35:50;19.13;;;2.50;;
72920;SDS011;61064;51.654;5.476;2023-11-19T13:38:16;18.10;;;2.47;;
72920;SDS011;61064;51.654;5.476;2023-11-19T13:40:41;22.23;;;2.60;;
72920;SDS011;61064;51.654;5.476;2023-11-19T13:43:06;21.07;;;2.60;;
72920;SDS011;61064;51.654;5.476;2023-11-19T13:45:32;17.03;;;2.23;;
72920;SDS011;61064;51.654;5.476;2023-11-19T13:47:57;16.48;;;2.00;;
72920;SDS011;61064;51.654;5.476;2023-11-19T13:50:23;18.87;;;2.00;;
72920;SDS011;61064;51.654;5.476;2023-11-19T13:52:48;17.60;;;2.20;;
72920;SDS011;61064;51.654;5.476;2023-11-19T13:55:14;16.87;;;1.90;;
72920;SDS011;61064;51.654;5.476;2023-11-19T13:57:40;19.05;;;1.80;;
72920;SDS011;61064;51.654;5.476;2023-11-19T14:00:09;19.42;;;2.15;;
72920;SDS011;61064;51.654;5.476;2023-11-19T14:02:41;21.47;;;1.97;;
72920;SDS011;61064;51.654;5.476;2023-11-19T14:05:07;14.60;;;2.05;;
72920;SDS011;61064;51.654;5.476;2023-11-19T14:07:33;16.08;;;2.10;;
72920;SDS011;61064;51.654;5.476;2023-11-19T14:09:59;16.23;;;2.00;;
72920;SDS011;61064;51.654;5.476;2023-11-19T14:12:24;23.50;;;2.40;;
72920;SDS011;61064;51.654;5.476;2023-11-19T14:14:50;17.77;;;2.10;;
72920;SDS011;61064;51.654;5.476;2023-11-19T14:17:15;15.73;;;2.20;;
72920;SDS011;61064;51.654;5.476;2023-11-19T14:19:41;19.07;;;2.57;;
72920;SDS011;61064;51.654;5.476;2023-11-19T14:22:07;15.40;;;2.03;;
72920;SDS011;61064;51.654;5.476;2023-11-19T14:24:33;14.18;;;1.83;;
72920;SDS011;61064;51.654;5.476;2023-11-19T14:26:59;17.80;;;2.07;;
72920;SDS011;61064;51.654;5.476;2023-11-19T14:29:24;17.63;;;2.07;;
72920;SDS011;61064;51.654;5.476;2023-11-19T14:31:56;23.95;;;3.17;;
72920;SDS011;61064;51.654;5.476;2023-11-19T14:34:22;19.83;;;2.92;;
72920;SDS011;61064;51.654;5.476;2023-11-19T14:36:47;17.77;;;2.47;;
72920;SDS011;61064;51.654;5.476;2023-11-19T14:39:13;17.75;;;2.50;;
72920;SDS011;61064;51.654;5.476;2023-11-19T14:41:39;15.60;;;2.60;;
72920;SDS011;61064;51.654;5.476;2023-11-19T14:44:04;18.07;;;3.77;;
72920;SDS011;61064;51.654;5.476;2023-11-19T14:46:30;18.38;;;3.22;;
72920;SDS011;61064;51.654;5.476;2023-11-19T14:48:56;22.10;;;3.63;;
72920;SDS011;61064;51.654;5.476;2023-11-19T14:51:21;23.38;;;4.68;;
72920;SDS011;61064;51.654;5.476;2023-11-19T14:53:47;17.57;;;3.40;;
72920;SDS011;61064;51.654;5.476;2023-11-19T14:56:12;22.87;;;4.10;;
72920;SDS011;61064;51.654;5.476;2023-11-19T14:58:38;19.63;;;3.05;;